sensor_id;sensor_type;location;lat;lon;timestamp;P1;durP1;ratioP1;P2;durP2;ratioP2
65717;SDS011;52445;52.466;-1.016;2022-07-31T00:00:41;3.35;;;1.48;;
65717;SDS011;52445;52.466;-1.016;2022-07-31T00:03:08;3.28;;;1.30;;
65717;SDS011;52445;52.466;-1.016;2022-07-31T00:05:34;2.35;;;1.23;;
65717;SDS011;52445;52.466;-1.016;2022-07-31T00:08:07;4.35;;;1.55;;
65717;SDS011;52445;52.466;-1.016;2022-07-31T00:10:33;3.33;;;1.55;;
65717;SDS011;52445;52.466;-1.016;2022-07-31T00:13:00;3.13;;;1.27;;
65717;SDS011;52445;52.466;-1.016;2022-07-31T00:15:27;2.83;;;1.30;;
65717;SDS011;52445;52.466;-1.016;2022-07-31T00:17:54;4.18;;;1.17;;
65717;SDS011;52445;52.466;-1.016;2022-07-31T00:20:22;2.33;;;1.10;;
65717;SDS011;52445;52.466;-1.016;2022-07-31T00:22:51;1.65;;;0.90;;
65717;SDS011;52445;52.466;-1.016;2022-07-31T00:25:21;2.25;;;1.10;;
65717;SDS011;52445;52.466;-1.016;2022-07-31T00:27:50;1.50;;;0.77;;
65717;SDS011;52445;52.466;-1.016;2022-07-31T00:30:18;4.07;;;1.35;;
65717;SDS011;52445;52.466;-1.016;2022-07-31T00:32:46;1.80;;;0.75;;
65717;SDS011;52445;52.466;-1.016;2022-07-31T00:35:17;1.98;;;0.95;;
65717;SDS011;52445;52.466;-1.016;2022-07-31T00:37:45;1.75;;;0.60;;
65717;SDS011;52445;52.466;-1.016;2022-07-31T00:40:14;1.52;;;0.70;;
65717;SDS011;52445;52.466;-1.016;2022-07-31T00:42:42;1.55;;;0.90;;
65717;SDS011;52445;52.466;-1.016;2022-07-31T00:45:09;2.08;;;0.90;;
65717;SDS011;52445;52.466;-1.016;2022-07-31T00:47:38;1.55;;;0.80;;
65717;SDS011;52445;52.466;-1.016;2022-07-31T00:50:05;1.40;;;0.70;;
65717;SDS011;52445;52.466;-1.016;2022-07-31T00:52:32;1.75;;;1.00;;
65717;SDS011;52445;52.466;-1.016;2022-07-31T00:54:59;2.38;;;0.70;;
65717;SDS011;52445;52.466;-1.016;2022-07-31T00:57:26;1.38;;;0.60;;
65717;SDS011;52445;52.466;-1.016;2022-07-31T00:59:52;1.70;;;1.13;;
65717;SDS011;52445;52.466;-1.016;2022-07-31T01:02:19;2.90;;;0.75;;
65717;SDS011;52445;52.466;-1.016;2022-07-31T01:04:46;1.77;;;0.90;;
65717;SDS011;52445;52.466;-1.016;2022-07-31T01:07:12;1.35;;;0.68;;
65717;SDS011;52445;52.466;-1.016;2022-07-31T01:09:39;1.88;;;0.90;;
65717;SDS011;52445;52.466;-1.016;2022-07-31T01:12:11;2.65;;;1.00;;
65717;SDS011;52445;52.466;-1.016;2022-07-31T01:14:47;2.78;;;1.05;;
65717;SDS011;52445;52.466;-1.016;2022-07-31T01:17:18;1.10;;;0.70;;
65717;SDS011;52445;52.466;-1.016;2022-07-31T01:19:48;1.65;;;0.82;;
65717;SDS011;52445;52.466;-1.016;2022-07-31T01:30:18;1.35;;;0.93;;
65717;SDS011;52445;52.466;-1.016;2022-07-31T01:32:55;1.13;;;0.93;;
65717;SDS011;52445;52.466;-1.016;2022-07-31T01:35:28;2.13;;;1.13;;
65717;SDS011;52445;52.466;-1.016;2022-07-31T01:38:03;1.33;;;0.65;;
65717;SDS011;52445;52.466;-1.016;2022-07-31T01:40:37;4.60;;;1.05;;
65717;SDS011;52445;52.466;-1.016;2022-07-31T01:43:12;5.47;;;1.05;;
65717;SDS011;52445;52.466;-1.016;2022-07-31T01:45:44;2.20;;;0.85;;
65717;SDS011;52445;52.466;-1.016;2022-07-31T01:48:15;2.72;;;1.10;;
65717;SDS011;52445;52.466;-1.016;2022-07-31T01:50:43;2.83;;;1.55;;
65717;SDS011;52445;52.466;-1.016;2022-07-31T01:53:16;2.33;;;1.20;;
65717;SDS011;52445;52.466;-1.016;2022-07-31T01:55:46;0.98;;;0.60;;
65717;SDS011;52445;52.466;-1.016;2022-07-31T01:58:29;2.13;;;1.92;;
65717;SDS011;52445;52.466;-1.016;2022-07-31T02:01:00;2.13;;;1.10;;
65717;SDS011;52445;52.466;-1.016;2022-07-31T02:03:29;2.25;;;1.83;;
65717;SDS011;52445;52.466;-1.016;2022-07-31T02:06:11;1.45;;;0.85;;
65717;SDS011;52445;52.466;-1.016;2022-07-31T02:08:41;2.17;;;0.80;;
65717;SDS011;52445;52.466;-1.016;2022-07-31T02:11:10;1.88;;;1.15;;
65717;SDS011;52445;52.466;-1.016;2022-07-31T02:13:39;1.33;;;0.70;;
65717;SDS011;52445;52.466;-1.016;2022-07-31T02:16:06;1.73;;;1.10;;
65717;SDS011;52445;52.466;-1.016;2022-07-31T02:18:33;1.23;;;0.80;;
65717;SDS011;52445;52.466;-1.016;2022-07-31T02:21:00;2.63;;;1.52;;
65717;SDS011;52445;52.466;-1.016;2022-07-31T02:23:27;1.50;;;0.82;;
65717;SDS011;52445;52.466;-1.016;2022-07-31T02:25:54;2.00;;;0.75;;
65717;SDS011;52445;52.466;-1.016;2022-07-31T02:28:21;0.88;;;0.57;;
65717;SDS011;52445;52.466;-1.016;2022-07-31T02:30:49;1.13;;;0.55;;
65717;SDS011;52445;52.466;-1.016;2022-07-31T02:33:19;2.33;;;1.08;;
65717;SDS011;52445;52.466;-1.016;2022-07-31T02:35:47;2.10;;;0.70;;
65717;SDS011;52445;52.466;-1.016;2022-07-31T02:38:16;2.10;;;1.25;;
65717;SDS011;52445;52.466;-1.016;2022-07-31T02:40:49;3.38;;;0.55;;
65717;SDS011;52445;52.466;-1.016;2022-07-31T02:43:18;2.05;;;0.73;;
65717;SDS011;52445;52.466;-1.016;2022-07-31T02:45:45;1.52;;;0.70;;
65717;SDS011;52445;52.466;-1.016;2022-07-31T02:48:13;2.17;;;0.80;;
65717;SDS011;52445;52.466;-1.016;2022-07-31T02:50:40;1.55;;;0.88;;
65717;SDS011;52445;52.466;-1.016;2022-07-31T02:53:07;2.88;;;1.23;;
65717;SDS011;52445;52.466;-1.016;2022-07-31T02:55:33;1.52;;;1.13;;
65717;SDS011;52445;52.466;-1.016;2022-07-31T02:58:01;3.05;;;1.17;;
65717;SDS011;52445;52.466;-1.016;2022-07-31T03:00:28;2.15;;;1.55;;
65717;SDS011;52445;52.466;-1.016;2022-07-31T03:02:56;3.85;;;1.00;;
65717;SDS011;52445;52.466;-1.016;2022-07-31T03:05:23;2.38;;;1.17;;
65717;SDS011;52445;52.466;-1.016;2022-07-31T03:07:50;2.15;;;1.20;;
65717;SDS011;52445;52.466;-1.016;2022-07-31T03:10:17;3.38;;;1.52;;
65717;SDS011;52445;52.466;-1.016;2022-07-31T03:12:45;2.50;;;1.58;;
65717;SDS011;52445;52.466;-1.016;2022-07-31T03:15:15;2.38;;;1.85;;
65717;SDS011;52445;52.466;-1.016;2022-07-31T03:17:44;3.45;;;1.40;;
65717;SDS011;52445;52.466;-1.016;2022-07-31T03:20:12;2.55;;;1.25;;
65717;SDS011;52445;52.466;-1.016;2022-07-31T03:22:39;2.55;;;1.40;;
65717;SDS011;52445;52.466;-1.016;2022-07-31T03:25:07;4.22;;;1.73;;
65717;SDS011;52445;52.466;-1.016;2022-07-31T03:27:35;3.17;;;1.45;;
65717;SDS011;52445;52.466;-1.016;2022-07-31T03:30:02;4.50;;;1.92;;
65717;SDS011;52445;52.466;-1.016;2022-07-31T03:32:30;6.20;;;1.85;;
65717;SDS011;52445;52.466;-1.016;2022-07-31T03:34:56;4.30;;;2.17;;
65717;SDS011;52445;52.466;-1.016;2022-07-31T03:37:23;3.50;;;1.75;;
65717;SDS011;52445;52.466;-1.016;2022-07-31T03:39:50;6.50;;;1.98;;
65717;SDS011;52445;52.466;-1.016;2022-07-31T03:42:16;4.15;;;2.35;;
65717;SDS011;52445;52.466;-1.016;2022-07-31T03:44:44;5.30;;;2.00;;
65717;SDS011;52445;52.466;-1.016;2022-07-31T03:47:12;4.65;;;1.95;;
65717;SDS011;52445;52.466;-1.016;2022-07-31T03:49:42;3.83;;;2.00;;
65717;SDS011;52445;52.466;-1.016;2022-07-31T03:52:09;5.30;;;2.38;;
65717;SDS011;52445;52.466;-1.016;2022-07-31T03:54:38;6.13;;;2.13;;
65717;SDS011;52445;52.466;-1.016;2022-07-31T03:57:05;5.88;;;2.60;;
65717;SDS011;52445;52.466;-1.016;2022-07-31T03:59:35;5.25;;;2.33;;
65717;SDS011;52445;52.466;-1.016;2022-07-31T04:02:13;4.60;;;2.47;;
65717;SDS011;52445;52.466;-1.016;2022-07-31T04:04:44;6.15;;;2.58;;
65717;SDS011;52445;52.466;-1.016;2022-07-31T04:07:10;10.48;;;2.70;;
65717;SDS011;52445;52.466;-1.016;2022-07-31T04:09:37;7.10;;;3.13;;
65717;SDS011;52445;52.466;-1.016;2022-07-31T04:12:04;8.35;;;2.38;;
65717;SDS011;52445;52.466;-1.016;2022-07-31T04:14:32;4.97;;;2.40;;
65717;SDS011;52445;52.466;-1.016;2022-07-31T04:16:58;6.30;;;2.63;;
65717;SDS011;52445;52.466;-1.016;2022-07-31T04:19:25;6.90;;;2.45;;
65717;SDS011;52445;52.466;-1.016;2022-07-31T04:21:51;8.52;;;3.03;;
65717;SDS011;52445;52.466;-1.016;2022-07-31T04:24:18;8.50;;;3.03;;
65717;SDS011;52445;52.466;-1.016;2022-07-31T04:26:47;9.60;;;3.17;;
65717;SDS011;52445;52.466;-1.016;2022-07-31T04:29:14;7.25;;;2.50;;
65717;SDS011;52445;52.466;-1.016;2022-07-31T04:31:41;7.47;;;2.60;;
65717;SDS011;52445;52.466;-1.016;2022-07-31T04:34:08;8.02;;;3.70;;
65717;SDS011;52445;52.466;-1.016;2022-07-31T04:36:34;7.78;;;2.45;;
65717;SDS011;52445;52.466;-1.016;2022-07-31T04:39:01;7.95;;;2.53;;
65717;SDS011;52445;52.466;-1.016;2022-07-31T04:41:28;4.57;;;2.17;;
65717;SDS011;52445;52.466;-1.016;2022-07-31T04:43:55;10.38;;;2.60;;
65717;SDS011;52445;52.466;-1.016;2022-07-31T04:46:23;8.77;;;2.30;;
65717;SDS011;52445;52.466;-1.016;2022-07-31T04:48:49;5.65;;;2.45;;
65717;SDS011;52445;52.466;-1.016;2022-07-31T04:51:17;5.72;;;2.42;;
65717;SDS011;52445;52.466;-1.016;2022-07-31T04:53:45;6.15;;;2.45;;
65717;SDS011;52445;52.466;-1.016;2022-07-31T04:56:12;10.25;;;2.60;;
65717;SDS011;52445;52.466;-1.016;2022-07-31T04:59:00;10.07;;;3.15;;
65717;SDS011;52445;52.466;-1.016;2022-07-31T05:01:30;7.88;;;2.65;;
65717;SDS011;52445;52.466;-1.016;2022-07-31T05:03:57;7.35;;;2.75;;
65717;SDS011;52445;52.466;-1.016;2022-07-31T05:06:41;8.02;;;2.67;;
65717;SDS011;52445;52.466;-1.016;2022-07-31T05:09:11;5.63;;;2.95;;
65717;SDS011;52445;52.466;-1.016;2022-07-31T05:11:45;7.22;;;3.20;;
65717;SDS011;52445;52.466;-1.016;2022-07-31T05:14:13;9.27;;;2.50;;
65717;SDS011;52445;52.466;-1.016;2022-07-31T05:16:42;6.38;;;2.70;;
65717;SDS011;52445;52.466;-1.016;2022-07-31T05:19:09;6.97;;;2.70;;
65717;SDS011;52445;52.466;-1.016;2022-07-31T05:21:40;6.25;;;2.90;;
65717;SDS011;52445;52.466;-1.016;2022-07-31T05:24:19;7.75;;;2.63;;
65717;SDS011;52445;52.466;-1.016;2022-07-31T05:26:59;8.88;;;3.47;;
65717;SDS011;52445;52.466;-1.016;2022-07-31T05:29:27;5.70;;;2.67;;
65717;SDS011;52445;52.466;-1.016;2022-07-31T05:31:54;13.32;;;2.90;;
65717;SDS011;52445;52.466;-1.016;2022-07-31T05:34:34;5.55;;;2.22;;
65717;SDS011;52445;52.466;-1.016;2022-07-31T05:37:02;6.78;;;2.53;;
65717;SDS011;52445;52.466;-1.016;2022-07-31T05:39:28;9.75;;;2.53;;
65717;SDS011;52445;52.466;-1.016;2022-07-31T05:41:55;6.10;;;2.35;;
65717;SDS011;52445;52.466;-1.016;2022-07-31T05:44:22;4.57;;;1.95;;
65717;SDS011;52445;52.466;-1.016;2022-07-31T05:46:50;4.90;;;2.70;;
65717;SDS011;52445;52.466;-1.016;2022-07-31T05:49:15;4.88;;;2.45;;
65717;SDS011;52445;52.466;-1.016;2022-07-31T05:51:43;5.35;;;1.95;;
65717;SDS011;52445;52.466;-1.016;2022-07-31T05:54:10;4.88;;;1.95;;
65717;SDS011;52445;52.466;-1.016;2022-07-31T05:56:37;5.45;;;2.25;;
65717;SDS011;52445;52.466;-1.016;2022-07-31T05:59:03;4.38;;;1.65;;
65717;SDS011;52445;52.466;-1.016;2022-07-31T06:01:30;3.95;;;1.60;;
65717;SDS011;52445;52.466;-1.016;2022-07-31T06:03:57;3.65;;;1.52;;
65717;SDS011;52445;52.466;-1.016;2022-07-31T06:06:23;3.85;;;1.50;;
65717;SDS011;52445;52.466;-1.016;2022-07-31T06:08:51;3.95;;;1.85;;
65717;SDS011;52445;52.466;-1.016;2022-07-31T06:11:18;3.88;;;1.60;;
65717;SDS011;52445;52.466;-1.016;2022-07-31T06:13:44;6.45;;;2.05;;
65717;SDS011;52445;52.466;-1.016;2022-07-31T06:16:12;7.18;;;2.08;;
65717;SDS011;52445;52.466;-1.016;2022-07-31T06:18:39;5.25;;;2.05;;
65717;SDS011;52445;52.466;-1.016;2022-07-31T06:21:06;9.65;;;2.30;;
65717;SDS011;52445;52.466;-1.016;2022-07-31T06:23:33;3.15;;;1.42;;
65717;SDS011;52445;52.466;-1.016;2022-07-31T06:26:00;2.88;;;1.65;;
65717;SDS011;52445;52.466;-1.016;2022-07-31T06:28:27;4.63;;;1.98;;
65717;SDS011;52445;52.466;-1.016;2022-07-31T06:31:17;3.97;;;1.65;;
65717;SDS011;52445;52.466;-1.016;2022-07-31T06:33:45;3.55;;;1.63;;
65717;SDS011;52445;52.466;-1.016;2022-07-31T06:36:14;3.85;;;1.40;;
65717;SDS011;52445;52.466;-1.016;2022-07-31T06:38:41;4.10;;;1.58;;
65717;SDS011;52445;52.466;-1.016;2022-07-31T06:41:08;6.75;;;2.08;;
65717;SDS011;52445;52.466;-1.016;2022-07-31T06:43:35;3.47;;;1.75;;
65717;SDS011;52445;52.466;-1.016;2022-07-31T06:46:01;5.18;;;1.75;;
65717;SDS011;52445;52.466;-1.016;2022-07-31T06:48:28;5.50;;;2.10;;
65717;SDS011;52445;52.466;-1.016;2022-07-31T06:50:55;4.40;;;2.58;;
65717;SDS011;52445;52.466;-1.016;2022-07-31T06:53:41;3.45;;;1.65;;
65717;SDS011;52445;52.466;-1.016;2022-07-31T06:56:08;4.32;;;1.73;;
65717;SDS011;52445;52.466;-1.016;2022-07-31T06:58:35;4.38;;;1.73;;
65717;SDS011;52445;52.466;-1.016;2022-07-31T07:01:01;4.85;;;1.92;;
65717;SDS011;52445;52.466;-1.016;2022-07-31T07:03:28;4.75;;;1.50;;
65717;SDS011;52445;52.466;-1.016;2022-07-31T07:05:55;3.85;;;1.63;;
65717;SDS011;52445;52.466;-1.016;2022-07-31T07:08:21;3.50;;;2.45;;
65717;SDS011;52445;52.466;-1.016;2022-07-31T07:10:48;3.03;;;1.58;;
65717;SDS011;52445;52.466;-1.016;2022-07-31T07:13:14;3.83;;;1.65;;
65717;SDS011;52445;52.466;-1.016;2022-07-31T07:15:41;3.75;;;1.63;;
65717;SDS011;52445;52.466;-1.016;2022-07-31T07:18:08;3.25;;;1.63;;
65717;SDS011;52445;52.466;-1.016;2022-07-31T07:20:34;6.18;;;1.52;;
65717;SDS011;52445;52.466;-1.016;2022-07-31T07:23:01;1.70;;;0.90;;
65717;SDS011;52445;52.466;-1.016;2022-07-31T07:25:28;3.40;;;1.60;;
65717;SDS011;52445;52.466;-1.016;2022-07-31T07:27:55;3.55;;;1.55;;
65717;SDS011;52445;52.466;-1.016;2022-07-31T07:30:22;3.40;;;1.60;;
65717;SDS011;52445;52.466;-1.016;2022-07-31T07:32:50;4.22;;;1.63;;
65717;SDS011;52445;52.466;-1.016;2022-07-31T07:35:16;2.63;;;1.38;;
65717;SDS011;52445;52.466;-1.016;2022-07-31T07:37:43;3.30;;;1.25;;
65717;SDS011;52445;52.466;-1.016;2022-07-31T07:40:10;2.70;;;1.23;;
65717;SDS011;52445;52.466;-1.016;2022-07-31T07:42:37;6.13;;;1.50;;
65717;SDS011;52445;52.466;-1.016;2022-07-31T07:45:03;3.60;;;1.40;;
65717;SDS011;52445;52.466;-1.016;2022-07-31T07:47:33;2.50;;;1.08;;
65717;SDS011;52445;52.466;-1.016;2022-07-31T07:50:20;3.40;;;2.97;;
65717;SDS011;52445;52.466;-1.016;2022-07-31T07:52:54;3.45;;;1.35;;
65717;SDS011;52445;52.466;-1.016;2022-07-31T07:55:20;2.38;;;1.00;;
65717;SDS011;52445;52.466;-1.016;2022-07-31T07:57:47;2.78;;;0.90;;
65717;SDS011;52445;52.466;-1.016;2022-07-31T08:00:14;2.38;;;1.00;;
65717;SDS011;52445;52.466;-1.016;2022-07-31T08:02:41;1.38;;;1.00;;
65717;SDS011;52445;52.466;-1.016;2022-07-31T08:05:28;2.50;;;0.90;;
65717;SDS011;52445;52.466;-1.016;2022-07-31T08:07:54;1.50;;;0.80;;
65717;SDS011;52445;52.466;-1.016;2022-07-31T08:10:21;3.25;;;1.00;;
65717;SDS011;52445;52.466;-1.016;2022-07-31T08:12:47;2.25;;;1.20;;
65717;SDS011;52445;52.466;-1.016;2022-07-31T08:15:15;2.80;;;2.15;;
65717;SDS011;52445;52.466;-1.016;2022-07-31T08:17:42;2.50;;;1.45;;
65717;SDS011;52445;52.466;-1.016;2022-07-31T08:20:08;1.50;;;0.90;;
65717;SDS011;52445;52.466;-1.016;2022-07-31T08:22:35;1.45;;;1.08;;
65717;SDS011;52445;52.466;-1.016;2022-07-31T08:25:02;2.22;;;1.85;;
65717;SDS011;52445;52.466;-1.016;2022-07-31T08:27:31;2.00;;;1.10;;
65717;SDS011;52445;52.466;-1.016;2022-07-31T08:30:06;2.47;;;1.17;;
65717;SDS011;52445;52.466;-1.016;2022-07-31T08:32:33;1.23;;;0.85;;
65717;SDS011;52445;52.466;-1.016;2022-07-31T08:35:00;2.28;;;0.90;;
65717;SDS011;52445;52.466;-1.016;2022-07-31T08:37:26;2.10;;;0.75;;
65717;SDS011;52445;52.466;-1.016;2022-07-31T08:40:15;1.77;;;0.73;;
65717;SDS011;52445;52.466;-1.016;2022-07-31T08:42:43;2.30;;;0.82;;
65717;SDS011;52445;52.466;-1.016;2022-07-31T08:45:11;3.08;;;0.63;;
65717;SDS011;52445;52.466;-1.016;2022-07-31T08:47:38;1.50;;;0.93;;
65717;SDS011;52445;52.466;-1.016;2022-07-31T08:50:07;4.28;;;0.80;;
65717;SDS011;52445;52.466;-1.016;2022-07-31T08:52:38;1.23;;;1.08;;
65717;SDS011;52445;52.466;-1.016;2022-07-31T08:55:05;2.10;;;1.05;;
65717;SDS011;52445;52.466;-1.016;2022-07-31T08:57:34;1.08;;;0.82;;
65717;SDS011;52445;52.466;-1.016;2022-07-31T09:00:09;1.40;;;0.93;;
65717;SDS011;52445;52.466;-1.016;2022-07-31T09:02:38;1.33;;;0.75;;
65717;SDS011;52445;52.466;-1.016;2022-07-31T09:05:05;1.13;;;0.82;;
65717;SDS011;52445;52.466;-1.016;2022-07-31T09:07:32;2.40;;;1.02;;
65717;SDS011;52445;52.466;-1.016;2022-07-31T09:09:59;1.17;;;0.77;;
65717;SDS011;52445;52.466;-1.016;2022-07-31T09:12:26;1.60;;;1.05;;
65717;SDS011;52445;52.466;-1.016;2022-07-31T09:14:58;1.20;;;1.05;;
65717;SDS011;52445;52.466;-1.016;2022-07-31T09:17:33;0.90;;;0.52;;
65717;SDS011;52445;52.466;-1.016;2022-07-31T09:20:01;1.05;;;0.85;;
65717;SDS011;52445;52.466;-1.016;2022-07-31T09:22:29;1.90;;;0.65;;
65717;SDS011;52445;52.466;-1.016;2022-07-31T09:25:13;2.00;;;1.25;;
65717;SDS011;52445;52.466;-1.016;2022-07-31T09:27:44;1.27;;;0.95;;
65717;SDS011;52445;52.466;-1.016;2022-07-31T09:30:12;1.02;;;0.52;;
65717;SDS011;52445;52.466;-1.016;2022-07-31T09:32:40;1.10;;;0.63;;
65717;SDS011;52445;52.466;-1.016;2022-07-31T09:35:09;1.90;;;1.17;;
65717;SDS011;52445;52.466;-1.016;2022-07-31T09:37:38;0.98;;;0.47;;
65717;SDS011;52445;52.466;-1.016;2022-07-31T09:40:05;1.02;;;0.95;;
65717;SDS011;52445;52.466;-1.016;2022-07-31T09:42:34;1.83;;;0.52;;
65717;SDS011;52445;52.466;-1.016;2022-07-31T09:45:03;1.15;;;0.63;;
65717;SDS011;52445;52.466;-1.016;2022-07-31T09:47:41;1.50;;;1.08;;
65717;SDS011;52445;52.466;-1.016;2022-07-31T09:50:08;1.33;;;1.23;;
65717;SDS011;52445;52.466;-1.016;2022-07-31T09:52:35;0.70;;;0.45;;
65717;SDS011;52445;52.466;-1.016;2022-07-31T09:55:04;0.85;;;0.65;;
65717;SDS011;52445;52.466;-1.016;2022-07-31T09:57:57;1.63;;;1.52;;
65717;SDS011;52445;52.466;-1.016;2022-07-31T10:00:25;1.63;;;1.02;;
65717;SDS011;52445;52.466;-1.016;2022-07-31T10:02:53;1.90;;;1.52;;
65717;SDS011;52445;52.466;-1.016;2022-07-31T10:05:23;1.40;;;1.30;;
65717;SDS011;52445;52.466;-1.016;2022-07-31T10:07:50;1.40;;;1.27;;
65717;SDS011;52445;52.466;-1.016;2022-07-31T10:10:21;1.70;;;1.60;;
65717;SDS011;52445;52.466;-1.016;2022-07-31T10:12:49;1.77;;;1.58;;
65717;SDS011;52445;52.466;-1.016;2022-07-31T10:15:20;1.38;;;1.27;;
65717;SDS011;52445;52.466;-1.016;2022-07-31T10:17:49;1.65;;;1.55;;
65717;SDS011;52445;52.466;-1.016;2022-07-31T10:20:17;1.27;;;0.98;;
65717;SDS011;52445;52.466;-1.016;2022-07-31T10:22:48;1.45;;;1.10;;
65717;SDS011;52445;52.466;-1.016;2022-07-31T10:25:20;1.80;;;1.10;;
65717;SDS011;52445;52.466;-1.016;2022-07-31T10:27:50;2.10;;;1.20;;
65717;SDS011;52445;52.466;-1.016;2022-07-31T10:30:19;1.65;;;1.55;;
65717;SDS011;52445;52.466;-1.016;2022-07-31T10:32:52;1.98;;;1.88;;
65717;SDS011;52445;52.466;-1.016;2022-07-31T10:35:19;2.38;;;1.45;;
65717;SDS011;52445;52.466;-1.016;2022-07-31T10:37:57;1.05;;;0.82;;
65717;SDS011;52445;52.466;-1.016;2022-07-31T10:40:34;2.35;;;1.42;;
65717;SDS011;52445;52.466;-1.016;2022-07-31T10:43:15;1.77;;;1.30;;
65717;SDS011;52445;52.466;-1.016;2022-07-31T10:45:52;0.80;;;0.63;;
65717;SDS011;52445;52.466;-1.016;2022-07-31T10:48:21;1.10;;;0.88;;
65717;SDS011;52445;52.466;-1.016;2022-07-31T10:50:59;0.65;;;0.57;;
65717;SDS011;52445;52.466;-1.016;2022-07-31T10:53:30;1.90;;;0.70;;
65717;SDS011;52445;52.466;-1.016;2022-07-31T10:56:17;6.18;;;0.60;;
65717;SDS011;52445;52.466;-1.016;2022-07-31T10:58:47;1.15;;;1.00;;
65717;SDS011;52445;52.466;-1.016;2022-07-31T11:01:15;1.23;;;0.70;;
65717;SDS011;52445;52.466;-1.016;2022-07-31T11:03:44;1.67;;;0.90;;
65717;SDS011;52445;52.466;-1.016;2022-07-31T11:06:13;1.95;;;0.50;;
65717;SDS011;52445;52.466;-1.016;2022-07-31T11:11:17;1.05;;;0.70;;
65717;SDS011;52445;52.466;-1.016;2022-07-31T11:13:57;1.10;;;0.60;;
65717;SDS011;52445;52.466;-1.016;2022-07-31T11:16:25;3.10;;;0.73;;
65717;SDS011;52445;52.466;-1.016;2022-07-31T11:21:36;2.03;;;1.92;;
65717;SDS011;52445;52.466;-1.016;2022-07-31T11:24:21;2.60;;;1.75;;
65717;SDS011;52445;52.466;-1.016;2022-07-31T11:26:51;2.80;;;2.05;;
65717;SDS011;52445;52.466;-1.016;2022-07-31T11:29:36;2.30;;;2.10;;
65717;SDS011;52445;52.466;-1.016;2022-07-31T11:32:23;2.45;;;2.25;;
65717;SDS011;52445;52.466;-1.016;2022-07-31T11:34:52;3.65;;;3.38;;
65717;SDS011;52445;52.466;-1.016;2022-07-31T11:37:26;1.83;;;1.63;;
65717;SDS011;52445;52.466;-1.016;2022-07-31T11:40:12;1.77;;;1.67;;
65717;SDS011;52445;52.466;-1.016;2022-07-31T11:42:40;1.98;;;1.58;;
65717;SDS011;52445;52.466;-1.016;2022-07-31T11:45:09;3.15;;;1.65;;
65717;SDS011;52445;52.466;-1.016;2022-07-31T11:47:38;2.47;;;1.80;;
65717;SDS011;52445;52.466;-1.016;2022-07-31T11:50:26;2.33;;;1.73;;
65717;SDS011;52445;52.466;-1.016;2022-07-31T11:53:03;1.60;;;1.50;;
65717;SDS011;52445;52.466;-1.016;2022-07-31T11:55:42;1.80;;;1.70;;
65717;SDS011;52445;52.466;-1.016;2022-07-31T11:58:09;2.20;;;1.98;;
65717;SDS011;52445;52.466;-1.016;2022-07-31T12:00:36;2.97;;;1.55;;
65717;SDS011;52445;52.466;-1.016;2022-07-31T12:03:03;2.10;;;2.00;;
65717;SDS011;52445;52.466;-1.016;2022-07-31T12:05:41;2.13;;;2.03;;
65717;SDS011;52445;52.466;-1.016;2022-07-31T12:08:09;2.17;;;1.98;;
65717;SDS011;52445;52.466;-1.016;2022-07-31T12:10:37;2.53;;;2.33;;
65717;SDS011;52445;52.466;-1.016;2022-07-31T12:13:08;3.05;;;2.75;;
65717;SDS011;52445;52.466;-1.016;2022-07-31T12:15:52;3.40;;;3.10;;
65717;SDS011;52445;52.466;-1.016;2022-07-31T12:21:28;4.03;;;3.58;;
65717;SDS011;52445;52.466;-1.016;2022-07-31T12:23:56;3.67;;;2.30;;
65717;SDS011;52445;52.466;-1.016;2022-07-31T12:26:25;3.50;;;3.20;;
65717;SDS011;52445;52.466;-1.016;2022-07-31T12:28:56;4.00;;;3.70;;
65717;SDS011;52445;52.466;-1.016;2022-07-31T12:34:28;2.53;;;1.83;;
65717;SDS011;52445;52.466;-1.016;2022-07-31T12:37:06;3.03;;;2.10;;
65717;SDS011;52445;52.466;-1.016;2022-07-31T12:39:37;4.10;;;2.65;;
65717;SDS011;52445;52.466;-1.016;2022-07-31T12:42:27;3.17;;;2.25;;
65717;SDS011;52445;52.466;-1.016;2022-07-31T12:45:00;3.90;;;2.35;;
65717;SDS011;52445;52.466;-1.016;2022-07-31T12:47:45;3.28;;;2.53;;
65717;SDS011;52445;52.466;-1.016;2022-07-31T12:50:18;2.97;;;2.20;;
65717;SDS011;52445;52.466;-1.016;2022-07-31T12:52:45;5.50;;;2.72;;
65717;SDS011;52445;52.466;-1.016;2022-07-31T12:55:12;3.17;;;2.22;;
65717;SDS011;52445;52.466;-1.016;2022-07-31T12:57:42;3.90;;;2.55;;
65717;SDS011;52445;52.466;-1.016;2022-07-31T13:00:17;3.72;;;2.35;;
65717;SDS011;52445;52.466;-1.016;2022-07-31T13:02:45;2.95;;;2.35;;
65717;SDS011;52445;52.466;-1.016;2022-07-31T13:05:12;2.83;;;2.38;;
65717;SDS011;52445;52.466;-1.016;2022-07-31T13:07:38;3.03;;;1.60;;
65717;SDS011;52445;52.466;-1.016;2022-07-31T13:10:06;1.92;;;1.40;;
65717;SDS011;52445;52.466;-1.016;2022-07-31T13:12:49;3.78;;;1.98;;
65717;SDS011;52445;52.466;-1.016;2022-07-31T13:15:16;2.15;;;1.92;;
65717;SDS011;52445;52.466;-1.016;2022-07-31T13:17:46;2.50;;;1.30;;
65717;SDS011;52445;52.466;-1.016;2022-07-31T13:20:15;3.10;;;1.70;;
65717;SDS011;52445;52.466;-1.016;2022-07-31T13:22:42;2.58;;;1.58;;
65717;SDS011;52445;52.466;-1.016;2022-07-31T13:25:08;4.07;;;1.95;;
65717;SDS011;52445;52.466;-1.016;2022-07-31T13:27:35;2.72;;;1.50;;
65717;SDS011;52445;52.466;-1.016;2022-07-31T13:30:02;1.92;;;1.55;;
65717;SDS011;52445;52.466;-1.016;2022-07-31T13:32:29;2.17;;;1.67;;
65717;SDS011;52445;52.466;-1.016;2022-07-31T13:34:57;2.55;;;1.20;;
65717;SDS011;52445;52.466;-1.016;2022-07-31T13:37:44;2.45;;;1.40;;
65717;SDS011;52445;52.466;-1.016;2022-07-31T13:40:12;2.65;;;1.45;;
65717;SDS011;52445;52.466;-1.016;2022-07-31T13:42:39;2.65;;;1.23;;
65717;SDS011;52445;52.466;-1.016;2022-07-31T13:45:05;1.40;;;1.10;;
65717;SDS011;52445;52.466;-1.016;2022-07-31T13:47:34;1.52;;;1.20;;
65717;SDS011;52445;52.466;-1.016;2022-07-31T13:50:17;2.60;;;1.60;;
65717;SDS011;52445;52.466;-1.016;2022-07-31T13:52:44;2.58;;;1.30;;
65717;SDS011;52445;52.466;-1.016;2022-07-31T13:55:11;1.35;;;1.00;;
65717;SDS011;52445;52.466;-1.016;2022-07-31T13:57:37;1.23;;;0.90;;
65717;SDS011;52445;52.466;-1.016;2022-07-31T14:00:04;2.30;;;1.35;;
65717;SDS011;52445;52.466;-1.016;2022-07-31T14:02:31;2.53;;;1.67;;
65717;SDS011;52445;52.466;-1.016;2022-07-31T14:04:58;3.22;;;2.00;;
65717;SDS011;52445;52.466;-1.016;2022-07-31T14:07:26;1.52;;;1.23;;
65717;SDS011;52445;52.466;-1.016;2022-07-31T14:10:12;1.40;;;1.02;;
65717;SDS011;52445;52.466;-1.016;2022-07-31T14:12:45;2.70;;;1.00;;
65717;SDS011;52445;52.466;-1.016;2022-07-31T14:15:12;1.70;;;1.00;;
65717;SDS011;52445;52.466;-1.016;2022-07-31T14:17:38;5.72;;;1.10;;
65717;SDS011;52445;52.466;-1.016;2022-07-31T14:20:05;2.30;;;0.88;;
65717;SDS011;52445;52.466;-1.016;2022-07-31T14:22:32;2.22;;;0.82;;
65717;SDS011;52445;52.466;-1.016;2022-07-31T14:24:59;1.42;;;1.02;;
65717;SDS011;52445;52.466;-1.016;2022-07-31T14:27:26;1.27;;;0.93;;
65717;SDS011;52445;52.466;-1.016;2022-07-31T14:29:52;1.95;;;1.10;;
65717;SDS011;52445;52.466;-1.016;2022-07-31T14:32:19;2.05;;;1.38;;
65717;SDS011;52445;52.466;-1.016;2022-07-31T14:34:48;1.50;;;1.02;;
65717;SDS011;52445;52.466;-1.016;2022-07-31T14:37:15;2.15;;;0.70;;
65717;SDS011;52445;52.466;-1.016;2022-07-31T14:39:42;1.95;;;0.98;;
65717;SDS011;52445;52.466;-1.016;2022-07-31T14:42:09;1.90;;;1.15;;
65717;SDS011;52445;52.466;-1.016;2022-07-31T14:44:37;2.65;;;1.10;;
65717;SDS011;52445;52.466;-1.016;2022-07-31T14:47:07;1.40;;;0.60;;
65717;SDS011;52445;52.466;-1.016;2022-07-31T14:49:35;2.17;;;0.68;;
65717;SDS011;52445;52.466;-1.016;2022-07-31T14:52:22;1.95;;;1.05;;
65717;SDS011;52445;52.466;-1.016;2022-07-31T14:54:48;1.50;;;0.75;;
65717;SDS011;52445;52.466;-1.016;2022-07-31T14:57:15;1.50;;;1.25;;
65717;SDS011;52445;52.466;-1.016;2022-07-31T14:59:47;0.95;;;0.68;;
65717;SDS011;52445;52.466;-1.016;2022-07-31T15:02:15;1.10;;;0.77;;
65717;SDS011;52445;52.466;-1.016;2022-07-31T15:04:47;1.30;;;0.85;;
65717;SDS011;52445;52.466;-1.016;2022-07-31T15:07:14;1.10;;;0.93;;